sensor_id;sensor_type;location;lat;lon;timestamp;temperature;humidity
5023;DHT22;2530;47.990;7.866;2023-07-30T00:01:52;20.80;99.90
5023;DHT22;2530;47.990;7.866;2023-07-30T00:04:17;21.30;99.90
5023;DHT22;2530;47.990;7.866;2023-07-30T00:06:43;20.80;99.90
5023;DHT22;2530;47.990;7.866;2023-07-30T00:09:08;20.90;99.90
5023;DHT22;2530;47.990;7.866;2023-07-30T00:11:34;20.20;99.90
5023;DHT22;2530;47.990;7.866;2023-07-30T00:13:59;20.70;99.90
5023;DHT22;2530;47.990;7.866;2023-07-30T00:16:26;20.70;99.90
5023;DHT22;2530;47.990;7.866;2023-07-30T00:18:51;20.70;99.90
5023;DHT22;2530;47.990;7.866;2023-07-30T00:21:17;20.70;99.90
5023;DHT22;2530;47.990;7.866;2023-07-30T00:23:42;20.70;99.90
5023;DHT22;2530;47.990;7.866;2023-07-30T00:26:08;21.00;99.90
5023;DHT22;2530;47.990;7.866;2023-07-30T00:28:33;20.70;99.90
5023;DHT22;2530;47.990;7.866;2023-07-30T00:30:59;20.70;99.90
5023;DHT22;2530;47.990;7.866;2023-07-30T00:33:24;20.70;99.90
5023;DHT22;2530;47.990;7.866;2023-07-30T00:35:53;20.70;99.90
5023;DHT22;2530;47.990;7.866;2023-07-30T00:38:19;20.70;99.90
5023;DHT22;2530;47.990;7.866;2023-07-30T00:40:44;20.80;99.90
5023;DHT22;2530;47.990;7.866;2023-07-30T00:43:10;20.70;99.90
5023;DHT22;2530;47.990;7.866;2023-07-30T00:45:36;20.70;99.90
5023;DHT22;2530;47.990;7.866;2023-07-30T00:48:04;20.70;99.90
5023;DHT22;2530;47.990;7.866;2023-07-30T00:50:29;20.70;99.90
5023;DHT22;2530;47.990;7.866;2023-07-30T00:52:56;20.50;99.90
5023;DHT22;2530;47.990;7.866;2023-07-30T00:55:21;20.70;99.90
5023;DHT22;2530;47.990;7.866;2023-07-30T00:57:48;20.70;99.90
5023;DHT22;2530;47.990;7.866;2023-07-30T01:00:14;20.50;99.90
5023;DHT22;2530;47.990;7.866;2023-07-30T01:02:39;20.70;99.90
5023;DHT22;2530;47.990;7.866;2023-07-30T01:05:05;20.60;99.90
5023;DHT22;2530;47.990;7.866;2023-07-30T01:07:31;20.60;99.90
5023;DHT22;2530;47.990;7.866;2023-07-30T01:09:57;20.30;99.90
5023;DHT22;2530;47.990;7.866;2023-07-30T01:12:23;20.60;99.90
5023;DHT22;2530;47.990;7.866;2023-07-30T01:14:50;20.60;99.90
5023;DHT22;2530;47.990;7.866;2023-07-30T01:17:16;20.70;99.90
5023;DHT22;2530;47.990;7.866;2023-07-30T01:19:41;20.60;99.90
5023;DHT22;2530;47.990;7.866;2023-07-30T01:22:07;20.60;99.90
5023;DHT22;2530;47.990;7.866;2023-07-30T01:24:32;20.60;99.90
5023;DHT22;2530;47.990;7.866;2023-07-30T01:27:05;20.40;99.90
5023;DHT22;2530;47.990;7.866;2023-07-30T01:30:26;20.60;99.90
5023;DHT22;2530;47.990;7.866;2023-07-30T01:32:28;21.00;99.90
5023;DHT22;2530;47.990;7.866;2023-07-30T01:34:57;20.50;99.90
5023;DHT22;2530;47.990;7.866;2023-07-30T01:37:23;21.00;99.90
5023;DHT22;2530;47.990;7.866;2023-07-30T01:39:49;20.50;99.90
5023;DHT22;2530;47.990;7.866;2023-07-30T01:42:15;19.30;99.90
5023;DHT22;2530;47.990;7.866;2023-07-30T01:44:41;20.70;99.90
5023;DHT22;2530;47.990;7.866;2023-07-30T01:47:07;20.40;99.90
5023;DHT22;2530;47.990;7.866;2023-07-30T01:49:33;20.50;99.90
5023;DHT22;2530;47.990;7.866;2023-07-30T01:51:59;20.50;99.90
5023;DHT22;2530;47.990;7.866;2023-07-30T01:54:24;21.00;99.90
5023;DHT22;2530;47.990;7.866;2023-07-30T01:56:50;20.40;99.90
5023;DHT22;2530;47.990;7.866;2023-07-30T01:59:15;20.30;99.90
5023;DHT22;2530;47.990;7.866;2023-07-30T02:01:41;20.10;99.90
5023;DHT22;2530;47.990;7.866;2023-07-30T02:04:07;20.30;99.90
5023;DHT22;2530;47.990;7.866;2023-07-30T02:06:33;20.40;99.90
5023;DHT22;2530;47.990;7.866;2023-07-30T02:08:58;21.10;99.90
5023;DHT22;2530;47.990;7.866;2023-07-30T02:11:24;19.80;99.90
5023;DHT22;2530;47.990;7.866;2023-07-30T02:13:49;20.10;99.90
5023;DHT22;2530;47.990;7.866;2023-07-30T02:16:15;21.00;99.90
5023;DHT22;2530;47.990;7.866;2023-07-30T02:18:40;20.80;99.90
5023;DHT22;2530;47.990;7.866;2023-07-30T02:21:06;20.30;99.90
5023;DHT22;2530;47.990;7.866;2023-07-30T02:23:32;20.30;99.90
5023;DHT22;2530;47.990;7.866;2023-07-30T02:25:57;19.90;99.90
5023;DHT22;2530;47.990;7.866;2023-07-30T02:28:23;20.90;99.90
5023;DHT22;2530;47.990;7.866;2023-07-30T02:30:48;19.70;99.90
5023;DHT22;2530;47.990;7.866;2023-07-30T02:33:14;20.90;99.90
5023;DHT22;2530;47.990;7.866;2023-07-30T02:35:39;20.10;99.90
5023;DHT22;2530;47.990;7.866;2023-07-30T02:38:05;20.20;99.90
5023;DHT22;2530;47.990;7.866;2023-07-30T02:40:31;20.10;99.90
5023;DHT22;2530;47.990;7.866;2023-07-30T02:42:56;19.80;99.90
5023;DHT22;2530;47.990;7.866;2023-07-30T02:45:22;20.20;99.90
5023;DHT22;2530;47.990;7.866;2023-07-30T02:47:47;20.20;99.90
5023;DHT22;2530;47.990;7.866;2023-07-30T02:50:13;20.30;99.90
5023;DHT22;2530;47.990;7.866;2023-07-30T02:52:39;20.30;99.90
5023;DHT22;2530;47.990;7.866;2023-07-30T02:55:04;20.10;99.90
5023;DHT22;2530;47.990;7.866;2023-07-30T02:57:30;20.10;99.90
5023;DHT22;2530;47.990;7.866;2023-07-30T02:59:56;21.90;99.90
5023;DHT22;2530;47.990;7.866;2023-07-30T03:02:21;20.10;99.90
5023;DHT22;2530;47.990;7.866;2023-07-30T03:04:47;19.50;99.90
5023;DHT22;2530;47.990;7.866;2023-07-30T03:07:12;20.20;99.90
5023;DHT22;2530;47.990;7.866;2023-07-30T03:09:38;22.60;99.90
5023;DHT22;2530;47.990;7.866;2023-07-30T03:12:04;20.20;99.90
5023;DHT22;2530;47.990;7.866;2023-07-30T03:14:29;20.20;99.90
5023;DHT22;2530;47.990;7.866;2023-07-30T03:16:55;20.20;99.90
5023;DHT22;2530;47.990;7.866;2023-07-30T03:19:20;20.10;99.90
5023;DHT22;2530;47.990;7.866;2023-07-30T03:21:46;20.50;99.90
5023;DHT22;2530;47.990;7.866;2023-07-30T03:24:11;20.10;99.90
5023;DHT22;2530;47.990;7.866;2023-07-30T03:26:37;20.10;99.90
5023;DHT22;2530;47.990;7.866;2023-07-30T03:29:03;20.10;99.90
5023;DHT22;2530;47.990;7.866;2023-07-30T03:31:28;20.10;99.90
5023;DHT22;2530;47.990;7.866;2023-07-30T03:33:54;20.10;99.90
5023;DHT22;2530;47.990;7.866;2023-07-30T03:36:19;20.10;99.90
5023;DHT22;2530;47.990;7.866;2023-07-30T03:38:45;20.00;99.90
5023;DHT22;2530;47.990;7.866;2023-07-30T03:41:10;19.60;99.90
5023;DHT22;2530;47.990;7.866;2023-07-30T03:43:36;20.10;99.90
5023;DHT22;2530;47.990;7.866;2023-07-30T03:46:02;21.10;99.90
5023;DHT22;2530;47.990;7.866;2023-07-30T03:48:28;20.80;99.90
5023;DHT22;2530;47.990;7.866;2023-07-30T03:50:54;20.00;99.90
5023;DHT22;2530;47.990;7.866;2023-07-30T03:53:20;20.00;99.90
5023;DHT22;2530;47.990;7.866;2023-07-30T03:55:45;20.00;99.90
5023;DHT22;2530;47.990;7.866;2023-07-30T03:58:11;19.80;99.90
5023;DHT22;2530;47.990;7.866;2023-07-30T04:00:37;19.90;99.90
5023;DHT22;2530;47.990;7.866;2023-07-30T04:03:02;19.90;99.90
5023;DHT22;2530;47.990;7.866;2023-07-30T04:05:29;20.00;99.90
5023;DHT22;2530;47.990;7.866;2023-07-30T04:07:54;19.90;99.90
5023;DHT22;2530;47.990;7.866;2023-07-30T04:10:20;20.50;99.90
5023;DHT22;2530;47.990;7.866;2023-07-30T04:12:45;20.20;99.90
5023;DHT22;2530;47.990;7.866;2023-07-30T04:15:11;20.00;99.90
5023;DHT22;2530;47.990;7.866;2023-07-30T04:17:37;19.90;99.90
5023;DHT22;2530;47.990;7.866;2023-07-30T04:20:03;20.00;99.90
5023;DHT22;2530;47.990;7.866;2023-07-30T04:22:29;19.90;99.90
5023;DHT22;2530;47.990;7.866;2023-07-30T04:24:55;19.90;99.90
5023;DHT22;2530;47.990;7.866;2023-07-30T04:27:20;19.80;99.90
5023;DHT22;2530;47.990;7.866;2023-07-30T04:29:46;19.40;99.90
5023;DHT22;2530;47.990;7.866;2023-07-30T04:32:12;19.90;99.90
5023;DHT22;2530;47.990;7.866;2023-07-30T04:34:37;20.40;99.90
5023;DHT22;2530;47.990;7.866;2023-07-30T04:37:03;19.70;99.90
5023;DHT22;2530;47.990;7.866;2023-07-30T04:39:30;20.00;99.90
5023;DHT22;2530;47.990;7.866;2023-07-30T04:41:57;20.70;99.90
5023;DHT22;2530;47.990;7.866;2023-07-30T04:44:22;18.80;99.90
5023;DHT22;2530;47.990;7.866;2023-07-30T04:46:48;19.60;99.90
5023;DHT22;2530;47.990;7.866;2023-07-30T04:49:13;20.00;99.90
5023;DHT22;2530;47.990;7.866;2023-07-30T04:51:39;20.40;99.90
5023;DHT22;2530;47.990;7.866;2023-07-30T04:54:04;20.10;99.90
5023;DHT22;2530;47.990;7.866;2023-07-30T04:56:30;19.90;99.90
5023;DHT22;2530;47.990;7.866;2023-07-30T04:58:55;20.10;99.90
5023;DHT22;2530;47.990;7.866;2023-07-30T05:01:21;20.10;99.90
5023;DHT22;2530;47.990;7.866;2023-07-30T05:03:47;20.10;99.90
5023;DHT22;2530;47.990;7.866;2023-07-30T05:06:12;20.10;99.90
5023;DHT22;2530;47.990;7.866;2023-07-30T05:08:38;20.20;99.90
5023;DHT22;2530;47.990;7.866;2023-07-30T05:11:03;19.90;99.90
5023;DHT22;2530;47.990;7.866;2023-07-30T05:13:29;20.10;99.90
5023;DHT22;2530;47.990;7.866;2023-07-30T05:15:54;20.10;99.90
5023;DHT22;2530;47.990;7.866;2023-07-30T05:18:20;20.10;99.90
5023;DHT22;2530;47.990;7.866;2023-07-30T05:20:46;20.10;99.90
5023;DHT22;2530;47.990;7.866;2023-07-30T05:23:11;20.10;99.90
5023;DHT22;2530;47.990;7.866;2023-07-30T05:25:37;20.10;99.90
5023;DHT22;2530;47.990;7.866;2023-07-30T05:28:03;20.00;99.90
5023;DHT22;2530;47.990;7.866;2023-07-30T05:30:28;20.00;99.90
5023;DHT22;2530;47.990;7.866;2023-07-30T05:32:54;20.10;99.90
5023;DHT22;2530;47.990;7.866;2023-07-30T05:35:19;20.00;99.90
5023;DHT22;2530;47.990;7.866;2023-07-30T05:37:45;20.50;99.90
5023;DHT22;2530;47.990;7.866;2023-07-30T05:40:11;20.10;99.90
5023;DHT22;2530;47.990;7.866;2023-07-30T05:42:36;20.10;99.90
5023;DHT22;2530;47.990;7.866;2023-07-30T05:45:02;20.60;99.90
5023;DHT22;2530;47.990;7.866;2023-07-30T05:47:27;20.10;99.90
5023;DHT22;2530;47.990;7.866;2023-07-30T05:49:53;19.70;99.90
5023;DHT22;2530;47.990;7.866;2023-07-30T05:52:19;20.00;99.90
5023;DHT22;2530;47.990;7.866;2023-07-30T05:54:44;20.10;99.90
5023;DHT22;2530;47.990;7.866;2023-07-30T05:57:10;20.10;99.90
5023;DHT22;2530;47.990;7.866;2023-07-30T05:59:35;20.10;99.90
5023;DHT22;2530;47.990;7.866;2023-07-30T06:02:03;20.20;99.90
5023;DHT22;2530;47.990;7.866;2023-07-30T06:04:29;20.10;99.90
5023;DHT22;2530;47.990;7.866;2023-07-30T06:06:55;20.30;99.90
5023;DHT22;2530;47.990;7.866;2023-07-30T06:09:20;20.30;99.90
5023;DHT22;2530;47.990;7.866;2023-07-30T06:11:46;20.30;99.90
5023;DHT22;2530;47.990;7.866;2023-07-30T06:14:12;20.50;99.90
5023;DHT22;2530;47.990;7.866;2023-07-30T06:16:37;20.30;99.90
5023;DHT22;2530;47.990;7.866;2023-07-30T06:19:03;21.50;99.90
5023;DHT22;2530;47.990;7.866;2023-07-30T06:21:28;20.40;99.90
5023;DHT22;2530;47.990;7.866;2023-07-30T06:23:54;20.60;99.90
5023;DHT22;2530;47.990;7.866;2023-07-30T06:26:19;20.60;99.90
5023;DHT22;2530;47.990;7.866;2023-07-30T06:28:45;19.70;99.90
5023;DHT22;2530;47.990;7.866;2023-07-30T06:31:10;20.40;99.90
5023;DHT22;2530;47.990;7.866;2023-07-30T06:33:36;20.50;99.90
5023;DHT22;2530;47.990;7.866;2023-07-30T06:36:03;20.40;99.90
5023;DHT22;2530;47.990;7.866;2023-07-30T06:38:29;20.40;99.90
5023;DHT22;2530;47.990;7.866;2023-07-30T06:40:54;20.40;99.90
5023;DHT22;2530;47.990;7.866;2023-07-30T06:43:23;20.50;99.90
5023;DHT22;2530;47.990;7.866;2023-07-30T06:45:48;20.50;99.90
5023;DHT22;2530;47.990;7.866;2023-07-30T06:48:14;20.60;99.90
5023;DHT22;2530;47.990;7.866;2023-07-30T06:50:41;20.50;99.90
5023;DHT22;2530;47.990;7.866;2023-07-30T06:53:06;21.60;99.90
5023;DHT22;2530;47.990;7.866;2023-07-30T06:55:32;19.70;99.90
5023;DHT22;2530;47.990;7.866;2023-07-30T06:57:58;20.60;99.90
5023;DHT22;2530;47.990;7.866;2023-07-30T07:00:23;21.00;99.90
5023;DHT22;2530;47.990;7.866;2023-07-30T07:02:49;20.30;99.90
5023;DHT22;2530;47.990;7.866;2023-07-30T07:05:15;20.60;99.90
5023;DHT22;2530;47.990;7.866;2023-07-30T07:07:40;20.60;99.90
5023;DHT22;2530;47.990;7.866;2023-07-30T07:10:06;19.80;99.90
5023;DHT22;2530;47.990;7.866;2023-07-30T07:12:32;21.00;99.90
5023;DHT22;2530;47.990;7.866;2023-07-30T07:14:57;21.10;99.90
5023;DHT22;2530;47.990;7.866;2023-07-30T07:17:24;21.30;99.90
5023;DHT22;2530;47.990;7.866;2023-07-30T07:19:49;21.30;99.90
5023;DHT22;2530;47.990;7.866;2023-07-30T07:22:15;20.10;99.90
5023;DHT22;2530;47.990;7.866;2023-07-30T07:24:43;21.30;99.90
5023;DHT22;2530;47.990;7.866;2023-07-30T07:27:09;21.40;99.90
5023;DHT22;2530;47.990;7.866;2023-07-30T07:29:35;21.40;99.90
5023;DHT22;2530;47.990;7.866;2023-07-30T07:32:00;21.30;99.90
5023;DHT22;2530;47.990;7.866;2023-07-30T07:34:26;21.30;99.90
5023;DHT22;2530;47.990;7.866;2023-07-30T07:36:51;20.50;99.90
5023;DHT22;2530;47.990;7.866;2023-07-30T07:39:17;21.20;99.90
5023;DHT22;2530;47.990;7.866;2023-07-30T07:41:43;21.20;99.90
5023;DHT22;2530;47.990;7.866;2023-07-30T07:44:09;21.10;99.90
5023;DHT22;2530;47.990;7.866;2023-07-30T07:46:34;21.30;99.90
5023;DHT22;2530;47.990;7.866;2023-07-30T07:49:00;21.30;99.90
5023;DHT22;2530;47.990;7.866;2023-07-30T07:51:25;21.40;99.90
5023;DHT22;2530;47.990;7.866;2023-07-30T07:53:51;21.50;99.90
5023;DHT22;2530;47.990;7.866;2023-07-30T07:56:16;21.70;99.90
5023;DHT22;2530;47.990;7.866;2023-07-30T07:58:42;21.80;99.90
5023;DHT22;2530;47.990;7.866;2023-07-30T08:01:08;21.70;99.90
5023;DHT22;2530;47.990;7.866;2023-07-30T08:03:34;22.10;99.90
5023;DHT22;2530;47.990;7.866;2023-07-30T08:06:00;22.10;99.90
5023;DHT22;2530;47.990;7.866;2023-07-30T08:08:26;21.40;99.90
5023;DHT22;2530;47.990;7.866;2023-07-30T08:10:52;21.80;99.90
5023;DHT22;2530;47.990;7.866;2023-07-30T08:13:18;21.60;99.90
5023;DHT22;2530;47.990;7.866;2023-07-30T08:15:43;21.70;99.90
5023;DHT22;2530;47.990;7.866;2023-07-30T08:18:09;23.40;99.90
5023;DHT22;2530;47.990;7.866;2023-07-30T08:20:35;21.90;99.90
5023;DHT22;2530;47.990;7.866;2023-07-30T08:23:01;23.70;99.90
5023;DHT22;2530;47.990;7.866;2023-07-30T08:25:26;21.80;99.90
5023;DHT22;2530;47.990;7.866;2023-07-30T08:27:52;21.70;99.90
5023;DHT22;2530;47.990;7.866;2023-07-30T08:30:18;21.80;99.90
5023;DHT22;2530;47.990;7.866;2023-07-30T08:32:43;22.00;99.90
5023;DHT22;2530;47.990;7.866;2023-07-30T08:35:10;24.00;99.90
5023;DHT22;2530;47.990;7.866;2023-07-30T08:37:35;21.90;99.90
5023;DHT22;2530;47.990;7.866;2023-07-30T08:40:01;21.90;99.90
5023;DHT22;2530;47.990;7.866;2023-07-30T08:42:27;21.90;99.90
5023;DHT22;2530;47.990;7.866;2023-07-30T08:44:52;21.90;99.90
5023;DHT22;2530;47.990;7.866;2023-07-30T08:47:18;22.00;99.90
5023;DHT22;2530;47.990;7.866;2023-07-30T08:49:43;22.00;99.90
5023;DHT22;2530;47.990;7.866;2023-07-30T08:52:09;22.30;99.90
5023;DHT22;2530;47.990;7.866;2023-07-30T08:54:37;21.90;99.90
5023;DHT22;2530;47.990;7.866;2023-07-30T08:57:03;22.10;99.90
5023;DHT22;2530;47.990;7.866;2023-07-30T08:59:37;22.00;99.90
5023;DHT22;2530;47.990;7.866;2023-07-30T09:02:04;21.70;99.90
5023;DHT22;2530;47.990;7.866;2023-07-30T09:04:35;22.00;99.90
5023;DHT22;2530;47.990;7.866;2023-07-30T09:07:02;22.00;99.90
5023;DHT22;2530;47.990;7.866;2023-07-30T09:09:27;21.90;99.90
5023;DHT22;2530;47.990;7.866;2023-07-30T09:11:53;21.70;99.90
5023;DHT22;2530;47.990;7.866;2023-07-30T09:14:20;22.00;99.90
5023;DHT22;2530;47.990;7.866;2023-07-30T09:16:46;21.30;99.90
5023;DHT22;2530;47.990;7.866;2023-07-30T09:19:16;23.10;99.90
5023;DHT22;2530;47.990;7.866;2023-07-30T09:21:43;22.10;99.90
5023;DHT22;2530;47.990;7.866;2023-07-30T09:24:08;22.10;99.90
5023;DHT22;2530;47.990;7.866;2023-07-30T09:26:45;22.00;99.90
5023;DHT22;2530;47.990;7.866;2023-07-30T09:29:11;22.10;99.90
5023;DHT22;2530;47.990;7.866;2023-07-30T09:31:48;21.40;99.90
5023;DHT22;2530;47.990;7.866;2023-07-30T09:34:18;22.40;99.90
5023;DHT22;2530;47.990;7.866;2023-07-30T09:36:44;22.40;99.90
5023;DHT22;2530;47.990;7.866;2023-07-30T09:39:15;21.60;99.90
5023;DHT22;2530;47.990;7.866;2023-07-30T09:41:45;22.70;99.90
5023;DHT22;2530;47.990;7.866;2023-07-30T09:44:11;23.00;99.90
5023;DHT22;2530;47.990;7.866;2023-07-30T09:46:44;22.50;99.90
5023;DHT22;2530;47.990;7.866;2023-07-30T09:49:10;22.60;99.90
5023;DHT22;2530;47.990;7.866;2023-07-30T09:51:39;22.60;99.90
5023;DHT22;2530;47.990;7.866;2023-07-30T09:54:10;22.30;99.90
5023;DHT22;2530;47.990;7.866;2023-07-30T09:56:39;22.50;99.90
5023;DHT22;2530;47.990;7.866;2023-07-30T09:59:06;22.50;99.90
5023;DHT22;2530;47.990;7.866;2023-07-30T10:01:36;22.20;99.90
5023;DHT22;2530;47.990;7.866;2023-07-30T10:04:09;22.40;99.90
5023;DHT22;2530;47.990;7.866;2023-07-30T10:06:38;22.90;99.90
5023;DHT22;2530;47.990;7.866;2023-07-30T10:09:05;23.20;99.90
5023;DHT22;2530;47.990;7.866;2023-07-30T10:11:32;22.60;99.90
5023;DHT22;2530;47.990;7.866;2023-07-30T10:13:58;22.40;99.90
5023;DHT22;2530;47.990;7.866;2023-07-30T10:16:27;22.60;99.90
5023;DHT22;2530;47.990;7.866;2023-07-30T10:18:56;21.60;99.90
5023;DHT22;2530;47.990;7.866;2023-07-30T10:21:24;23.50;99.90
5023;DHT22;2530;47.990;7.866;2023-07-30T10:24:01;21.50;99.90
5023;DHT22;2530;47.990;7.866;2023-07-30T10:26:31;22.60;99.90
5023;DHT22;2530;47.990;7.866;2023-07-30T10:29:14;22.70;99.90
5023;DHT22;2530;47.990;7.866;2023-07-30T10:31:42;23.00;99.90
5023;DHT22;2530;47.990;7.866;2023-07-30T10:34:09;22.20;99.90
5023;DHT22;2530;47.990;7.866;2023-07-30T10:36:44;23.00;99.90
5023;DHT22;2530;47.990;7.866;2023-07-30T10:39:17;23.10;99.90
5023;DHT22;2530;47.990;7.866;2023-07-30T10:41:45;22.90;99.90
5023;DHT22;2530;47.990;7.866;2023-07-30T10:44:26;22.70;99.90
5023;DHT22;2530;47.990;7.866;2023-07-30T10:46:55;22.80;99.90
5023;DHT22;2530;47.990;7.866;2023-07-30T10:49:21;23.00;99.90
5023;DHT22;2530;47.990;7.866;2023-07-30T10:51:48;23.10;99.90
5023;DHT22;2530;47.990;7.866;2023-07-30T10:54:14;23.10;99.90
5023;DHT22;2530;47.990;7.866;2023-07-30T10:56:41;22.90;99.90
5023;DHT22;2530;47.990;7.866;2023-07-30T10:59:07;22.90;99.90
5023;DHT22;2530;47.990;7.866;2023-07-30T11:01:37;22.60;99.90
5023;DHT22;2530;47.990;7.866;2023-07-30T11:04:18;22.50;99.90
5023;DHT22;2530;47.990;7.866;2023-07-30T11:06:48;23.00;99.90
5023;DHT22;2530;47.990;7.866;2023-07-30T11:09:21;23.50;99.90
5023;DHT22;2530;47.990;7.866;2023-07-30T11:11:47;22.50;99.90
5023;DHT22;2530;47.990;7.866;2023-07-30T11:14:24;22.10;99.90
5023;DHT22;2530;47.990;7.866;2023-07-30T11:17:00;22.30;99.90
5023;DHT22;2530;47.990;7.866;2023-07-30T11:19:26;22.20;99.90
5023;DHT22;2530;47.990;7.866;2023-07-30T11:21:54;22.10;99.90
5023;DHT22;2530;47.990;7.866;2023-07-30T11:24:20;22.10;99.90
5023;DHT22;2530;47.990;7.866;2023-07-30T11:27:00;22.30;99.90
5023;DHT22;2530;47.990;7.866;2023-07-30T11:29:26;22.50;99.90
5023;DHT22;2530;47.990;7.866;2023-07-30T11:31:56;22.50;99.90
5023;DHT22;2530;47.990;7.866;2023-07-30T11:34:22;22.90;99.90
5023;DHT22;2530;47.990;7.866;2023-07-30T11:36:48;23.70;99.90
5023;DHT22;2530;47.990;7.866;2023-07-30T11:39:14;23.60;99.90
5023;DHT22;2530;47.990;7.866;2023-07-30T11:41:40;23.80;99.90
5023;DHT22;2530;47.990;7.866;2023-07-30T11:44:05;23.70;99.90
5023;DHT22;2530;47.990;7.866;2023-07-30T11:46:31;23.50;99.90
5023;DHT22;2530;47.990;7.866;2023-07-30T11:49:15;23.20;99.90
5023;DHT22;2530;47.990;7.866;2023-07-30T11:51:46;23.00;99.90
5023;DHT22;2530;47.990;7.866;2023-07-30T11:54:20;23.00;99.90
5023;DHT22;2530;47.990;7.866;2023-07-30T11:56:46;22.70;99.90
5023;DHT22;2530;47.990;7.866;2023-07-30T11:59:12;22.80;99.90
5023;DHT22;2530;47.990;7.866;2023-07-30T12:01:38;22.60;99.90
5023;DHT22;2530;47.990;7.866;2023-07-30T12:04:04;22.60;99.90
5023;DHT22;2530;47.990;7.866;2023-07-30T12:06:50;22.80;99.90
5023;DHT22;2530;47.990;7.866;2023-07-30T12:09:17;22.50;99.90
5023;DHT22;2530;47.990;7.866;2023-07-30T12:11:50;23.20;99.90
5023;DHT22;2530;47.990;7.866;2023-07-30T12:14:16;22.80;99.90
5023;DHT22;2530;47.990;7.866;2023-07-30T12:16:41;22.90;99.90
5023;DHT22;2530;47.990;7.866;2023-07-30T12:19:07;22.60;99.90
5023;DHT22;2530;47.990;7.866;2023-07-30T12:21:33;23.20;99.90
5023;DHT22;2530;47.990;7.866;2023-07-30T12:23:59;22.90;99.90
5023;DHT22;2530;47.990;7.866;2023-07-30T12:26:24;23.40;99.90
5023;DHT22;2530;47.990;7.866;2023-07-30T12:28:50;22.80;99.90
5023;DHT22;2530;47.990;7.866;2023-07-30T12:31:15;23.20;99.90
5023;DHT22;2530;47.990;7.866;2023-07-30T12:33:41;23.30;99.90
5023;DHT22;2530;47.990;7.866;2023-07-30T12:36:06;24.10;99.90
5023;DHT22;2530;47.990;7.866;2023-07-30T12:38:32;24.20;99.90
5023;DHT22;2530;47.990;7.866;2023-07-30T12:40:57;24.00;99.90
5023;DHT22;2530;47.990;7.866;2023-07-30T12:43:23;24.60;99.90
5023;DHT22;2530;47.990;7.866;2023-07-30T12:45:49;24.70;99.90
5023;DHT22;2530;47.990;7.866;2023-07-30T12:48:15;25.00;99.90
5023;DHT22;2530;47.990;7.866;2023-07-30T12:50:40;24.80;99.90
5023;DHT22;2530;47.990;7.866;2023-07-30T12:53:06;24.90;99.90
5023;DHT22;2530;47.990;7.866;2023-07-30T12:55:31;25.20;99.90
5023;DHT22;2530;47.990;7.866;2023-07-30T12:57:57;25.50;99.90
5023;DHT22;2530;47.990;7.866;2023-07-30T13:00:24;25.20;99.90
5023;DHT22;2530;47.990;7.866;2023-07-30T13:02:49;24.30;99.90
5023;DHT22;2530;47.990;7.866;2023-07-30T13:05:17;24.60;99.90
5023;DHT22;2530;47.990;7.866;2023-07-30T13:07:43;25.20;99.90
5023;DHT22;2530;47.990;7.866;2023-07-30T13:10:09;25.10;99.90
5023;DHT22;2530;47.990;7.866;2023-07-30T13:12:35;25.10;99.90
5023;DHT22;2530;47.990;7.866;2023-07-30T13:15:02;24.90;99.90
5023;DHT22;2530;47.990;7.866;2023-07-30T13:17:28;23.80;99.90
5023;DHT22;2530;47.990;7.866;2023-07-30T13:19:54;23.60;99.90
5023;DHT22;2530;47.990;7.866;2023-07-30T13:22:20;22.70;99.90
5023;DHT22;2530;47.990;7.866;2023-07-30T13:24:45;22.70;99.90
5023;DHT22;2530;47.990;7.866;2023-07-30T13:27:11;22.40;99.90
5023;DHT22;2530;47.990;7.866;2023-07-30T13:29:36;22.40;99.90
5023;DHT22;2530;47.990;7.866;2023-07-30T13:32:02;22.20;99.90
5023;DHT22;2530;47.990;7.866;2023-07-30T13:34:27;22.20;99.90
5023;DHT22;2530;47.990;7.866;2023-07-30T13:36:53;22.30;99.90
5023;DHT22;2530;47.990;7.866;2023-07-30T13:39:19;22.30;99.90
5023;DHT22;2530;47.990;7.866;2023-07-30T13:41:45;22.30;99.90
5023;DHT22;2530;47.990;7.866;2023-07-30T13:44:10;22.20;99.90
5023;DHT22;2530;47.990;7.866;2023-07-30T13:46:37;22.20;99.90
5023;DHT22;2530;47.990;7.866;2023-07-30T13:49:03;22.20;99.90
5023;DHT22;2530;47.990;7.866;2023-07-30T13:51:29;22.10;99.90
5023;DHT22;2530;47.990;7.866;2023-07-30T13:53:58;21.60;99.90
5023;DHT22;2530;47.990;7.866;2023-07-30T13:56:25;22.10;99.90
5023;DHT22;2530;47.990;7.866;2023-07-30T13:58:50;22.30;99.90
5023;DHT22;2530;47.990;7.866;2023-07-30T14:01:16;22.20;99.90
5023;DHT22;2530;47.990;7.866;2023-07-30T14:03:43;22.30;99.90
5023;DHT22;2530;47.990;7.866;2023-07-30T14:06:08;22.40;99.90
5023;DHT22;2530;47.990;7.866;2023-07-30T14:08:34;22.50;99.90
5023;DHT22;2530;47.990;7.866;2023-07-30T14:11:00;23.00;99.90
5023;DHT22;2530;47.990;7.866;2023-07-30T14:13:26;23.00;99.90
5023;DHT22;2530;47.990;7.866;2023-07-30T14:15:51;22.70;99.90
5023;DHT22;2530;47.990;7.866;2023-07-30T14:18:17;22.60;99.90
5023;DHT22;2530;47.990;7.866;2023-07-30T14:20:43;22.70;99.90
5023;DHT22;2530;47.990;7.866;2023-07-30T14:23:08;22.90;99.90
5023;DHT22;2530;47.990;7.866;2023-07-30T14:25:35;23.00;99.90
5023;DHT22;2530;47.990;7.866;2023-07-30T14:28:00;23.40;99.90
5023;DHT22;2530;47.990;7.866;2023-07-30T14:30:26;24.00;99.90
5023;DHT22;2530;47.990;7.866;2023-07-30T14:32:51;23.80;99.90
5023;DHT22;2530;47.990;7.866;2023-07-30T14:35:17;23.30;99.90
5023;DHT22;2530;47.990;7.866;2023-07-30T14:37:42;23.30;99.90
5023;DHT22;2530;47.990;7.866;2023-07-30T14:40:08;23.20;99.90
5023;DHT22;2530;47.990;7.866;2023-07-30T14:42:34;23.30;99.90
5023;DHT22;2530;47.990;7.866;2023-07-30T14:44:59;23.30;99.90
5023;DHT22;2530;47.990;7.866;2023-07-30T14:47:25;23.70;99.90
5023;DHT22;2530;47.990;7.866;2023-07-30T14:49:50;23.60;99.90
5023;DHT22;2530;47.990;7.866;2023-07-30T14:52:18;23.80;99.90
5023;DHT22;2530;47.990;7.866;2023-07-30T14:54:44;24.30;99.90
5023;DHT22;2530;47.990;7.866;2023-07-30T14:57:10;24.70;1.00
5023;DHT22;2530;47.990;7.866;2023-07-30T14:59:36;24.60;1.00
5023;DHT22;2530;47.990;7.866;2023-07-30T15:02:01;24.60;99.90
5023;DHT22;2530;47.990;7.866;2023-07-30T15:04:27;24.20;99.90
5023;DHT22;2530;47.990;7.866;2023-07-30T15:06:52;23.90;99.90
5023;DHT22;2530;47.990;7.866;2023-07-30T15:09:18;23.70;99.90
5023;DHT22;2530;47.990;7.866;2023-07-30T15:11:43;23.80;99.90
5023;DHT22;2530;47.990;7.866;2023-07-30T15:14:09;23.90;99.90
5023;DHT22;2530;47.990;7.866;2023-07-30T15:16:36;23.70;99.90
5023;DHT22;2530;47.990;7.866;2023-07-30T15:19:02;23.70;99.90
5023;DHT22;2530;47.990;7.866;2023-07-30T15:21:29;24.10;99.90
5023;DHT22;2530;47.990;7.866;2023-07-30T15:23:55;23.90;99.90
5023;DHT22;2530;47.990;7.866;2023-07-30T15:26:21;23.10;99.90
5023;DHT22;2530;47.990;7.866;2023-07-30T15:28:46;23.00;99.90
5023;DHT22;2530;47.990;7.866;2023-07-30T15:31:12;23.10;99.90
5023;DHT22;2530;47.990;7.866;2023-07-30T15:33:38;23.20;99.90
5023;DHT22;2530;47.990;7.866;2023-07-30T15:36:04;23.30;99.90
5023;DHT22;2530;47.990;7.866;2023-07-30T15:38:30;23.30;99.90
5023;DHT22;2530;47.990;7.866;2023-07-30T15:40:55;23.30;99.90
5023;DHT22;2530;47.990;7.866;2023-07-30T15:43:21;23.60;99.90
5023;DHT22;2530;47.990;7.866;2023-07-30T15:45:46;24.10;99.90
5023;DHT22;2530;47.990;7.866;2023-07-30T15:48:12;23.60;99.90
5023;DHT22;2530;47.990;7.866;2023-07-30T15:50:38;23.60;99.90
5023;DHT22;2530;47.990;7.866;2023-07-30T15:53:04;23.50;99.90
5023;DHT22;2530;47.990;7.866;2023-07-30T15:55:32;23.60;99.90
5023;DHT22;2530;47.990;7.866;2023-07-30T15:57:58;23.90;99.90